Flight Track Log - Related Links

Times and Time Zones

All times are in EDT time to prevent confusion due to time zone crossing. See the AAL1413 flight status page for this flight to view local times or setup timezone preferences in your user account.

Time Position Orientation Groundspeed Altitude Reporting Facility
EDT Latitude Longitude Course Direction KTS MPH feet Rate Location/Type
Tue 11:34:53 PM 32.9000 -97.0333 133° Southeast 145 167 1,200  Level Dallas / Fort Worth TRACON
Tue 11:35:53 PM 32.9500 -97.0167 16° North 204 235 3,400 2,600 Climbing Dallas / Fort Worth TRACON
Tue 11:36:53 PM 33.0167 -97.0333 348° North 245 282 6,400 2,851 Climbing Dallas / Fort Worth TRACON
Tue 11:37:00 PM 32.6469 -97.1482 157° South  Level Estimated
Tue 11:38:00 PM 32.5636 -97.1848 196° South  Level Estimated
Tue 11:38:14 PM 32.9464 -97.0997 218° Southwest 300 345 10,100  Level Fort Worth Center
Tue 11:39:00 PM 32.4802 -97.2213 190° South  Level Estimated
Tue 11:39:15 PM 32.8322 -97.0964 179° South 385 443 12,200  Level Fort Worth Center
Tue 11:40:00 PM 32.4199 -97.1440 133° Southeast  Level FlightAware Approximate
Tue 11:40:15 PM 32.7156 -97.1000 181° South 421 484 14,800  Level Fort Worth Center
Tue 11:41:16 PM 32.5989 -97.1261 191° South 424 488 17,800 2,508 Climbing Fort Worth Center
Tue 11:42:17 PM 32.4783 -97.1483 189° South 433 498 19,900 2,066 Climbing Fort Worth Center
Tue 11:43:18 PM 32.3536 -97.1714 189° South 451 519 22,000 1,864 Climbing Fort Worth Center
Tue 11:45:14 PM 32.1181 -97.2144 189° South 472 543 25,400 1,670 Climbing Houston Center
Tue 11:46:14 PM 31.9831 -97.2381 188° South 484 557 26,900 1,835 Climbing Houston Center
Tue 11:47:15 PM 31.8497 -97.2625 189° South 486 559 29,100 1,525 Climbing Houston Center
Tue 11:48:16 PM 31.7175 -97.2886 190° South 486 559 30,000 446 Climbing Houston Center
Tue 11:49:16 PM 31.5869 -97.3111 188° South 479 551 30,000  Level Houston Center
Tue 11:50:17 PM 31.4303 -97.3394 189° South 477 549 30,000  Level Houston Center
Tue 11:51:17 PM 31.2997 -97.3642 189° South 477 549 30,000  Level Houston Center
Tue 11:52:18 PM 31.1703 -97.3883 189° South 476 548 30,000  Level Houston Center
Tue 11:53:19 PM 31.0417 -97.4125 189° South 476 548 30,000  Level Houston Center
Tue 11:54:19 PM 30.9139 -97.4353 189° South 476 548 30,000  Level Houston Center
Tue 11:55:20 PM 30.7858 -97.4578 189° South 475 547 30,000 -99 Level Houston Center
Tue 11:56:20 PM 30.6581 -97.4803 189° South 472 543 29,800 -1,884 Descending Houston Center
Tue 11:57:21 PM 30.5311 -97.5039 189° South 468 539 26,200 -3,295 Descending Houston Center
Tue 11:58:22 PM 30.3992 -97.5286 189° South 477 549 23,100 -2,727 Descending Houston Center
Tue 11:59:22 PM 30.2897 -97.5922 207° Southwest 443 510 20,700 -2,479 Descending Houston Center
Wed 12:00:23 AM 30.1881 -97.6633 211° Southwest 428 493 18,100 -2,819 Descending Houston Center
Wed 12:00:45 AM 30.1333 -97.7014 211° Southwest 420 483 16,800 -3,200 Descending Houston Center
Wed 12:01:23 AM 30.0692 -97.7447 210° Southwest 417 480 14,900 -2,636 Descending Houston Center
Wed 12:01:51 AM 30.0228 -97.7758 210° Southwest 409 471 13,900 -1,869 Descending Houston Center
Wed 12:02:24 AM 29.9736 -97.8094 211° Southwest 400 460 13,000 -885 Descending Houston Center
Wed 12:02:52 AM 29.9342 -97.8378 212° Southwest 376 433 13,000  Level Houston Center
Wed 12:03:24 AM 29.8903 -97.8736 215° Southwest 363 418 13,000 -590 Level Houston Center
Wed 12:03:53 AM 29.8658 -97.9139 235° Southwest 340 391 12,400 -984 Descending Houston Center
Wed 12:04:25 AM 29.8261 -97.9503 218° Southwest 338 389 12,000 -909 Descending Houston Center
Wed 12:04:59 AM 29.7908 -97.9861 221° Southwest 315 362 11,400 -1,500 Descending Houston Center
Wed 12:05:25 AM 29.7583 -98.0136 216° Southwest 320 368 10,500 -1,770 Descending Houston Center
Wed 12:06:00 AM 29.7172 -98.0506 218° Southwest 307 353 9,600 -1,180 Descending Houston Center
Wed 12:06:26 AM 29.6908 -98.0744 218° Southwest 312 359 9,300 -590 Descending Houston Center
Wed 12:07:01 AM 29.6494 -98.1119 218° Southwest 305 351 9,000 -300 Descending Houston Center
Wed 12:07:26 AM 29.6253 -98.1328 217° Southwest 301 346 9,000  Level Houston Center
Wed 12:07:55 AM 29.5953 -98.1597 218° Southwest 295 339 9,000  Level Houston Center
Wed 12:08:27 AM 29.5592 -98.1919 218° Southwest 300 345 9,000 -492 Level Houston Center
Wed 12:08:56 AM 29.5236 -98.2236 218° Southwest 298 343 8,500 -1,000 Descending Houston Center
Wed 12:09:27 AM 29.4961 -98.2486 218° Southwest 291 335 8,000 -1,000 Descending Houston Center
Wed 12:09:56 AM 29.4672 -98.2739 217° Southwest 243 280 7,500 -1,082 Descending Houston Center
Wed 12:10:28 AM 29.4444 -98.2958 220° Southwest 240 276 6,900 -1,574 Descending Houston Center
Wed 12:10:57 AM 29.4192 -98.3206 220° Southwest 214 246 5,900 -1,800 Descending Houston Center
Wed 12:11:28 AM 29.4117 -98.3506 254° West 219 252 5,100 -1,672 Descending Houston Center
Wed 12:11:58 AM 29.4042 -98.3869 257° West 208 239 4,200 -1,869 Descending Houston Center
Wed 12:12:29 AM 29.4003 -98.4228 263° West 214 246 3,200 -1,600 Descending Houston Center
Wed 12:12:58 AM 29.3939 -98.4553 257° West 217 250 2,600 -700 Descending Houston Center
Wed 12:13:29 AM 29.4003 -98.4894 282° West 217 250 2,500 -109 Descending Houston Center
Wed 12:13:53 AM 29.4114 -98.5108 301° West 209 241 2,500  Level Houston Center
Wed 12:14:29 AM 29.4347 -98.5333 320° Northwest 196 226 2,500 -200 Level Houston Center
Wed 12:14:53 AM 29.4531 -98.5275 15° North 178 205 2,300 -590 Descending Houston Center
Wed 12:15:30 AM 29.4806 -98.5114 27° Northeast 181 208 1,900 -689 Descending Houston Center
Wed 12:15:54 AM 29.4925 -98.5011 37° Northeast 153 176 1,600 -800 Descending Houston Center
Wed 12:16:30 AM 29.5108 -98.4825 41° Northeast 146 168 1,100 -557 Descending Houston Center
Wed 12:17:31 AM 29.5361 -98.4586 39° Northeast 138 159 700 -393 Descending Houston Center

Login

Don't have an account? Register now (free) for customized features, flight alerts, and more!